sensor_id;sensor_type;location;lat;lon;timestamp;temperature;humidity
56162;DHT22;42045;52.986;6.014;2023-04-24T00:02:05;10.80;99.90
56162;DHT22;42045;52.986;6.014;2023-04-24T00:04:32;10.80;99.90
56162;DHT22;42045;52.986;6.014;2023-04-24T00:06:57;10.70;99.90
56162;DHT22;42045;52.986;6.014;2023-04-24T00:09:25;10.70;99.90
56162;DHT22;42045;52.986;6.014;2023-04-24T00:11:51;10.70;99.90
56162;DHT22;42045;52.986;6.014;2023-04-24T00:14:17;10.70;99.90
56162;DHT22;42045;52.986;6.014;2023-04-24T00:16:43;10.60;99.90
56162;DHT22;42045;52.986;6.014;2023-04-24T00:19:08;10.60;99.90
56162;DHT22;42045;52.986;6.014;2023-04-24T00:21:34;10.60;99.90
56162;DHT22;42045;52.986;6.014;2023-04-24T00:24:00;10.50;99.90
56162;DHT22;42045;52.986;6.014;2023-04-24T00:26:26;10.50;99.90
56162;DHT22;42045;52.986;6.014;2023-04-24T00:28:51;10.40;99.90
56162;DHT22;42045;52.986;6.014;2023-04-24T00:31:17;10.40;99.90
56162;DHT22;42045;52.986;6.014;2023-04-24T00:33:43;10.40;99.90
56162;DHT22;42045;52.986;6.014;2023-04-24T00:36:09;10.30;99.90
56162;DHT22;42045;52.986;6.014;2023-04-24T00:38:35;10.30;99.90
56162;DHT22;42045;52.986;6.014;2023-04-24T00:41:00;10.20;99.90
56162;DHT22;42045;52.986;6.014;2023-04-24T00:43:26;10.20;99.90
56162;DHT22;42045;52.986;6.014;2023-04-24T00:45:52;10.20;99.90
56162;DHT22;42045;52.986;6.014;2023-04-24T00:48:18;10.20;99.90
56162;DHT22;42045;52.986;6.014;2023-04-24T00:50:45;10.10;99.90
56162;DHT22;42045;52.986;6.014;2023-04-24T00:53:10;10.10;99.90
56162;DHT22;42045;52.986;6.014;2023-04-24T00:55:36;10.20;99.90
56162;DHT22;42045;52.986;6.014;2023-04-24T00:58:02;10.20;99.90
56162;DHT22;42045;52.986;6.014;2023-04-24T01:00:28;10.20;99.90
56162;DHT22;42045;52.986;6.014;2023-04-24T01:02:55;10.20;99.90
56162;DHT22;42045;52.986;6.014;2023-04-24T01:05:21;10.10;99.90
56162;DHT22;42045;52.986;6.014;2023-04-24T01:07:47;10.10;99.90
56162;DHT22;42045;52.986;6.014;2023-04-24T01:10:15;10.10;99.90
56162;DHT22;42045;52.986;6.014;2023-04-24T01:12:40;10.00;99.90
56162;DHT22;42045;52.986;6.014;2023-04-24T01:15:07;10.10;99.90
56162;DHT22;42045;52.986;6.014;2023-04-24T01:17:33;10.10;99.90
56162;DHT22;42045;52.986;6.014;2023-04-24T01:19:59;10.00;99.90
56162;DHT22;42045;52.986;6.014;2023-04-24T01:22:26;10.10;99.90
56162;DHT22;42045;52.986;6.014;2023-04-24T01:24:53;10.00;99.90
56162;DHT22;42045;52.986;6.014;2023-04-24T01:27:19;10.00;99.90
56162;DHT22;42045;52.986;6.014;2023-04-24T01:29:45;10.00;99.90
56162;DHT22;42045;52.986;6.014;2023-04-24T01:32:13;10.00;99.90
56162;DHT22;42045;52.986;6.014;2023-04-24T01:34:39;10.00;99.90
56162;DHT22;42045;52.986;6.014;2023-04-24T01:37:05;10.10;99.90
56162;DHT22;42045;52.986;6.014;2023-04-24T01:39:31;10.00;99.90
56162;DHT22;42045;52.986;6.014;2023-04-24T01:41:57;10.00;99.90
56162;DHT22;42045;52.986;6.014;2023-04-24T01:44:23;10.00;99.90
56162;DHT22;42045;52.986;6.014;2023-04-24T01:46:48;10.00;99.90
56162;DHT22;42045;52.986;6.014;2023-04-24T01:49:14;10.00;99.90
56162;DHT22;42045;52.986;6.014;2023-04-24T01:51:41;10.00;99.90
56162;DHT22;42045;52.986;6.014;2023-04-24T01:54:06;10.00;99.90
56162;DHT22;42045;52.986;6.014;2023-04-24T01:56:33;10.00;99.90
56162;DHT22;42045;52.986;6.014;2023-04-24T01:59:01;10.00;99.90
56162;DHT22;42045;52.986;6.014;2023-04-24T02:01:31;10.00;99.90
56162;DHT22;42045;52.986;6.014;2023-04-24T02:03:58;10.00;99.90
56162;DHT22;42045;52.986;6.014;2023-04-24T02:06:23;10.00;99.90
56162;DHT22;42045;52.986;6.014;2023-04-24T02:08:49;10.10;99.90
56162;DHT22;42045;52.986;6.014;2023-04-24T02:11:15;10.00;99.90
56162;DHT22;42045;52.986;6.014;2023-04-24T02:13:40;10.00;99.90
56162;DHT22;42045;52.986;6.014;2023-04-24T02:16:06;10.00;99.90
56162;DHT22;42045;52.986;6.014;2023-04-24T02:18:31;10.00;99.90
56162;DHT22;42045;52.986;6.014;2023-04-24T02:20:57;10.00;99.90
56162;DHT22;42045;52.986;6.014;2023-04-24T02:23:23;10.00;99.90
56162;DHT22;42045;52.986;6.014;2023-04-24T02:25:48;10.00;99.90
56162;DHT22;42045;52.986;6.014;2023-04-24T02:28:14;10.00;99.90
56162;DHT22;42045;52.986;6.014;2023-04-24T02:30:39;10.00;99.90
56162;DHT22;42045;52.986;6.014;2023-04-24T02:33:05;10.00;99.90
56162;DHT22;42045;52.986;6.014;2023-04-24T02:35:31;10.00;99.90
56162;DHT22;42045;52.986;6.014;2023-04-24T02:37:57;10.10;99.90
56162;DHT22;42045;52.986;6.014;2023-04-24T02:40:22;10.00;99.90
56162;DHT22;42045;52.986;6.014;2023-04-24T02:42:48;10.10;99.90
56162;DHT22;42045;52.986;6.014;2023-04-24T02:45:13;10.10;99.90
56162;DHT22;42045;52.986;6.014;2023-04-24T02:47:39;10.00;99.90
56162;DHT22;42045;52.986;6.014;2023-04-24T02:50:06;10.10;99.90
56162;DHT22;42045;52.986;6.014;2023-04-24T02:52:32;10.10;99.90
56162;DHT22;42045;52.986;6.014;2023-04-24T02:54:57;10.00;99.90
56162;DHT22;42045;52.986;6.014;2023-04-24T02:57:23;10.00;99.90
56162;DHT22;42045;52.986;6.014;2023-04-24T02:59:49;10.10;99.90
56162;DHT22;42045;52.986;6.014;2023-04-24T03:02:14;10.10;99.90
56162;DHT22;42045;52.986;6.014;2023-04-24T03:04:40;10.10;99.90
56162;DHT22;42045;52.986;6.014;2023-04-24T03:07:08;10.10;99.90
56162;DHT22;42045;52.986;6.014;2023-04-24T03:09:34;10.20;99.90
56162;DHT22;42045;52.986;6.014;2023-04-24T03:11:59;10.20;99.90
56162;DHT22;42045;52.986;6.014;2023-04-24T03:14:25;10.20;99.90
56162;DHT22;42045;52.986;6.014;2023-04-24T03:16:51;10.20;99.90
56162;DHT22;42045;52.986;6.014;2023-04-24T03:19:17;10.20;99.90
56162;DHT22;42045;52.986;6.014;2023-04-24T03:21:42;10.20;99.90
56162;DHT22;42045;52.986;6.014;2023-04-24T03:24:08;10.20;99.90
56162;DHT22;42045;52.986;6.014;2023-04-24T03:26:34;10.20;99.90
56162;DHT22;42045;52.986;6.014;2023-04-24T03:29:01;10.20;99.90
56162;DHT22;42045;52.986;6.014;2023-04-24T03:31:26;10.20;99.90
56162;DHT22;42045;52.986;6.014;2023-04-24T03:33:52;10.30;99.90
56162;DHT22;42045;52.986;6.014;2023-04-24T03:36:17;10.30;99.90
56162;DHT22;42045;52.986;6.014;2023-04-24T03:38:44;10.30;99.90
56162;DHT22;42045;52.986;6.014;2023-04-24T03:41:10;10.20;99.90
56162;DHT22;42045;52.986;6.014;2023-04-24T03:43:37;10.20;99.90
56162;DHT22;42045;52.986;6.014;2023-04-24T03:46:03;10.30;99.90
56162;DHT22;42045;52.986;6.014;2023-04-24T03:48:28;10.20;99.90
56162;DHT22;42045;52.986;6.014;2023-04-24T03:50:54;10.20;99.90
56162;DHT22;42045;52.986;6.014;2023-04-24T03:53:20;10.20;99.90
56162;DHT22;42045;52.986;6.014;2023-04-24T03:55:46;10.30;99.90
56162;DHT22;42045;52.986;6.014;2023-04-24T03:58:11;10.20;99.90
56162;DHT22;42045;52.986;6.014;2023-04-24T04:00:39;10.30;99.90
56162;DHT22;42045;52.986;6.014;2023-04-24T04:03:06;10.20;99.90
56162;DHT22;42045;52.986;6.014;2023-04-24T04:05:31;10.20;99.90
56162;DHT22;42045;52.986;6.014;2023-04-24T04:07:57;10.20;99.90
56162;DHT22;42045;52.986;6.014;2023-04-24T04:10:23;10.20;99.90
56162;DHT22;42045;52.986;6.014;2023-04-24T04:12:48;10.20;99.90
56162;DHT22;42045;52.986;6.014;2023-04-24T04:15:14;10.20;99.90
56162;DHT22;42045;52.986;6.014;2023-04-24T04:17:40;10.20;99.90
56162;DHT22;42045;52.986;6.014;2023-04-24T04:20:06;10.20;99.90
56162;DHT22;42045;52.986;6.014;2023-04-24T04:22:36;10.20;99.90
56162;DHT22;42045;52.986;6.014;2023-04-24T04:25:02;10.20;99.90
56162;DHT22;42045;52.986;6.014;2023-04-24T04:27:28;10.20;99.90
56162;DHT22;42045;52.986;6.014;2023-04-24T04:29:58;10.20;99.90
56162;DHT22;42045;52.986;6.014;2023-04-24T04:32:26;10.10;99.90
56162;DHT22;42045;52.986;6.014;2023-04-24T04:34:52;10.10;99.90
56162;DHT22;42045;52.986;6.014;2023-04-24T04:37:18;10.10;99.90
56162;DHT22;42045;52.986;6.014;2023-04-24T04:39:44;10.00;99.90
56162;DHT22;42045;52.986;6.014;2023-04-24T04:42:10;10.10;99.90
56162;DHT22;42045;52.986;6.014;2023-04-24T04:44:35;10.00;99.90
56162;DHT22;42045;52.986;6.014;2023-04-24T04:47:02;10.00;99.90
56162;DHT22;42045;52.986;6.014;2023-04-24T04:49:31;10.00;99.90
56162;DHT22;42045;52.986;6.014;2023-04-24T04:51:57;10.00;99.90
56162;DHT22;42045;52.986;6.014;2023-04-24T04:54:22;10.00;99.90
56162;DHT22;42045;52.986;6.014;2023-04-24T04:56:50;10.00;99.90
56162;DHT22;42045;52.986;6.014;2023-04-24T04:59:16;10.00;99.90
56162;DHT22;42045;52.986;6.014;2023-04-24T05:01:41;10.00;99.90
56162;DHT22;42045;52.986;6.014;2023-04-24T05:04:07;10.00;99.90
56162;DHT22;42045;52.986;6.014;2023-04-24T05:06:33;10.00;99.90
56162;DHT22;42045;52.986;6.014;2023-04-24T05:08:58;9.90;99.90
56162;DHT22;42045;52.986;6.014;2023-04-24T05:11:24;10.00;99.90
56162;DHT22;42045;52.986;6.014;2023-04-24T05:13:50;9.90;99.90
56162;DHT22;42045;52.986;6.014;2023-04-24T05:16:15;9.90;99.90
56162;DHT22;42045;52.986;6.014;2023-04-24T05:18:41;10.00;99.90
56162;DHT22;42045;52.986;6.014;2023-04-24T05:21:07;9.90;99.90
56162;DHT22;42045;52.986;6.014;2023-04-24T05:23:32;9.90;99.90
56162;DHT22;42045;52.986;6.014;2023-04-24T05:25:58;9.90;99.90
56162;DHT22;42045;52.986;6.014;2023-04-24T05:28:24;9.90;99.90
56162;DHT22;42045;52.986;6.014;2023-04-24T05:30:54;9.90;99.90
56162;DHT22;42045;52.986;6.014;2023-04-24T05:33:21;9.90;99.90
56162;DHT22;42045;52.986;6.014;2023-04-24T05:35:48;9.90;99.90
56162;DHT22;42045;52.986;6.014;2023-04-24T05:38:14;10.00;99.90
56162;DHT22;42045;52.986;6.014;2023-04-24T05:40:42;9.90;99.90
56162;DHT22;42045;52.986;6.014;2023-04-24T05:43:08;10.00;99.90
56162;DHT22;42045;52.986;6.014;2023-04-24T05:45:34;10.00;99.90
56162;DHT22;42045;52.986;6.014;2023-04-24T05:48:02;10.00;99.90
56162;DHT22;42045;52.986;6.014;2023-04-24T05:50:27;10.00;99.90
56162;DHT22;42045;52.986;6.014;2023-04-24T05:52:53;10.00;99.90
56162;DHT22;42045;52.986;6.014;2023-04-24T05:55:19;10.00;99.90
56162;DHT22;42045;52.986;6.014;2023-04-24T05:57:45;10.10;99.90
56162;DHT22;42045;52.986;6.014;2023-04-24T06:00:11;10.10;99.90
56162;DHT22;42045;52.986;6.014;2023-04-24T06:02:41;10.10;99.90
56162;DHT22;42045;52.986;6.014;2023-04-24T06:05:07;10.10;99.90
56162;DHT22;42045;52.986;6.014;2023-04-24T06:07:33;10.10;99.90
56162;DHT22;42045;52.986;6.014;2023-04-24T06:09:59;10.10;99.90
56162;DHT22;42045;52.986;6.014;2023-04-24T06:12:25;10.10;99.90
56162;DHT22;42045;52.986;6.014;2023-04-24T06:14:51;10.10;99.90
56162;DHT22;42045;52.986;6.014;2023-04-24T06:17:17;10.10;99.90
56162;DHT22;42045;52.986;6.014;2023-04-24T06:19:43;10.10;99.90
56162;DHT22;42045;52.986;6.014;2023-04-24T06:22:08;10.10;99.90
56162;DHT22;42045;52.986;6.014;2023-04-24T06:24:34;10.00;99.90
56162;DHT22;42045;52.986;6.014;2023-04-24T06:27:00;10.10;99.90
56162;DHT22;42045;52.986;6.014;2023-04-24T06:29:27;10.10;99.90
56162;DHT22;42045;52.986;6.014;2023-04-24T06:31:52;10.20;99.90
56162;DHT22;42045;52.986;6.014;2023-04-24T06:34:18;10.20;99.90
56162;DHT22;42045;52.986;6.014;2023-04-24T06:36:44;10.20;99.90
56162;DHT22;42045;52.986;6.014;2023-04-24T06:39:10;10.20;99.90
56162;DHT22;42045;52.986;6.014;2023-04-24T06:41:35;10.20;99.90
56162;DHT22;42045;52.986;6.014;2023-04-24T06:44:01;10.20;99.90
56162;DHT22;42045;52.986;6.014;2023-04-24T06:46:27;10.10;99.90
56162;DHT22;42045;52.986;6.014;2023-04-24T06:48:56;10.10;99.90
56162;DHT22;42045;52.986;6.014;2023-04-24T06:51:23;10.20;99.90
56162;DHT22;42045;52.986;6.014;2023-04-24T06:53:49;10.30;99.90
56162;DHT22;42045;52.986;6.014;2023-04-24T06:56:15;10.40;99.90
56162;DHT22;42045;52.986;6.014;2023-04-24T06:58:41;10.40;99.90
56162;DHT22;42045;52.986;6.014;2023-04-24T07:01:07;10.40;99.90
56162;DHT22;42045;52.986;6.014;2023-04-24T07:03:33;10.40;99.90
56162;DHT22;42045;52.986;6.014;2023-04-24T07:05:58;10.30;99.90
56162;DHT22;42045;52.986;6.014;2023-04-24T07:08:24;10.30;99.90
56162;DHT22;42045;52.986;6.014;2023-04-24T07:10:50;10.20;99.90
56162;DHT22;42045;52.986;6.014;2023-04-24T07:13:16;10.20;99.90
56162;DHT22;42045;52.986;6.014;2023-04-24T07:15:42;10.20;99.90
56162;DHT22;42045;52.986;6.014;2023-04-24T07:18:08;10.10;99.90
56162;DHT22;42045;52.986;6.014;2023-04-24T07:20:34;10.00;99.90
56162;DHT22;42045;52.986;6.014;2023-04-24T07:23:00;10.00;99.90
56162;DHT22;42045;52.986;6.014;2023-04-24T07:25:26;9.90;99.90
56162;DHT22;42045;52.986;6.014;2023-04-24T07:27:52;9.90;99.90
56162;DHT22;42045;52.986;6.014;2023-04-24T07:30:18;9.90;99.90
56162;DHT22;42045;52.986;6.014;2023-04-24T07:32:44;9.80;99.90
56162;DHT22;42045;52.986;6.014;2023-04-24T07:35:09;9.80;99.90
56162;DHT22;42045;52.986;6.014;2023-04-24T07:37:36;9.80;99.90
56162;DHT22;42045;52.986;6.014;2023-04-24T07:40:02;9.80;99.90
56162;DHT22;42045;52.986;6.014;2023-04-24T07:42:28;9.80;99.90
56162;DHT22;42045;52.986;6.014;2023-04-24T07:44:55;9.70;99.90
56162;DHT22;42045;52.986;6.014;2023-04-24T07:47:21;9.70;99.90
56162;DHT22;42045;52.986;6.014;2023-04-24T07:49:47;9.70;99.90
56162;DHT22;42045;52.986;6.014;2023-04-24T07:52:13;9.60;99.90
56162;DHT22;42045;52.986;6.014;2023-04-24T07:54:38;9.60;99.90
56162;DHT22;42045;52.986;6.014;2023-04-24T07:57:04;9.60;99.90
56162;DHT22;42045;52.986;6.014;2023-04-24T07:59:32;9.60;99.90
56162;DHT22;42045;52.986;6.014;2023-04-24T08:01:57;9.60;99.90
56162;DHT22;42045;52.986;6.014;2023-04-24T08:04:23;9.50;99.90
56162;DHT22;42045;52.986;6.014;2023-04-24T08:06:49;9.50;99.90
56162;DHT22;42045;52.986;6.014;2023-04-24T08:09:14;9.50;99.90
56162;DHT22;42045;52.986;6.014;2023-04-24T08:11:40;9.50;99.90
56162;DHT22;42045;52.986;6.014;2023-04-24T08:14:06;9.50;99.90
56162;DHT22;42045;52.986;6.014;2023-04-24T08:16:32;9.50;99.90
56162;DHT22;42045;52.986;6.014;2023-04-24T08:18:58;9.50;99.90
56162;DHT22;42045;52.986;6.014;2023-04-24T08:21:24;9.60;99.90
56162;DHT22;42045;52.986;6.014;2023-04-24T08:23:52;9.50;99.90
56162;DHT22;42045;52.986;6.014;2023-04-24T08:26:18;9.60;99.90
56162;DHT22;42045;52.986;6.014;2023-04-24T08:28:44;9.70;99.90
56162;DHT22;42045;52.986;6.014;2023-04-24T08:31:09;9.80;99.90
56162;DHT22;42045;52.986;6.014;2023-04-24T08:33:35;9.90;99.90
56162;DHT22;42045;52.986;6.014;2023-04-24T08:36:05;10.00;99.90
56162;DHT22;42045;52.986;6.014;2023-04-24T08:38:31;10.00;99.90
56162;DHT22;42045;52.986;6.014;2023-04-24T08:41:01;10.10;99.90
56162;DHT22;42045;52.986;6.014;2023-04-24T08:43:27;10.10;99.90
56162;DHT22;42045;52.986;6.014;2023-04-24T08:45:55;10.10;99.90
56162;DHT22;42045;52.986;6.014;2023-04-24T08:48:22;10.00;99.90
56162;DHT22;42045;52.986;6.014;2023-04-24T08:50:50;9.90;99.90
56162;DHT22;42045;52.986;6.014;2023-04-24T08:53:17;9.90;99.90
56162;DHT22;42045;52.986;6.014;2023-04-24T08:55:43;9.80;99.90
56162;DHT22;42045;52.986;6.014;2023-04-24T08:58:11;9.70;99.90
56162;DHT22;42045;52.986;6.014;2023-04-24T09:00:39;9.70;99.90
56162;DHT22;42045;52.986;6.014;2023-04-24T09:03:05;9.70;99.90
56162;DHT22;42045;52.986;6.014;2023-04-24T09:05:31;9.70;99.90
56162;DHT22;42045;52.986;6.014;2023-04-24T09:07:59;9.80;99.90
56162;DHT22;42045;52.986;6.014;2023-04-24T09:10:27;9.90;99.90
56162;DHT22;42045;52.986;6.014;2023-04-24T09:12:56;10.00;99.90
56162;DHT22;42045;52.986;6.014;2023-04-24T09:15:24;10.00;99.90
56162;DHT22;42045;52.986;6.014;2023-04-24T09:17:51;10.10;99.90
56162;DHT22;42045;52.986;6.014;2023-04-24T09:20:16;10.30;99.90
56162;DHT22;42045;52.986;6.014;2023-04-24T09:22:43;10.30;99.90
56162;DHT22;42045;52.986;6.014;2023-04-24T09:25:10;10.50;99.90
56162;DHT22;42045;52.986;6.014;2023-04-24T09:27:42;10.60;99.90
56162;DHT22;42045;52.986;6.014;2023-04-24T09:30:09;10.70;99.90
56162;DHT22;42045;52.986;6.014;2023-04-24T09:32:35;10.70;99.90
56162;DHT22;42045;52.986;6.014;2023-04-24T09:35:12;10.60;99.90
56162;DHT22;42045;52.986;6.014;2023-04-24T09:37:43;10.50;99.90
56162;DHT22;42045;52.986;6.014;2023-04-24T09:40:10;10.40;99.90
56162;DHT22;42045;52.986;6.014;2023-04-24T09:42:39;10.20;99.90
56162;DHT22;42045;52.986;6.014;2023-04-24T09:45:14;10.10;99.90
56162;DHT22;42045;52.986;6.014;2023-04-24T09:47:40;10.00;99.90
56162;DHT22;42045;52.986;6.014;2023-04-24T09:50:14;10.00;99.90
56162;DHT22;42045;52.986;6.014;2023-04-24T09:52:45;10.00;99.90
56162;DHT22;42045;52.986;6.014;2023-04-24T09:55:29;10.00;99.90
56162;DHT22;42045;52.986;6.014;2023-04-24T09:57:59;9.90;99.90
56162;DHT22;42045;52.986;6.014;2023-04-24T10:00:32;9.80;99.90
56162;DHT22;42045;52.986;6.014;2023-04-24T10:03:03;9.80;99.90
56162;DHT22;42045;52.986;6.014;2023-04-24T10:05:29;9.80;99.90
56162;DHT22;42045;52.986;6.014;2023-04-24T10:08:04;9.80;99.90
56162;DHT22;42045;52.986;6.014;2023-04-24T10:10:35;9.80;99.90
56162;DHT22;42045;52.986;6.014;2023-04-24T10:13:02;9.90;99.90
56162;DHT22;42045;52.986;6.014;2023-04-24T10:15:28;10.00;99.90
56162;DHT22;42045;52.986;6.014;2023-04-24T10:17:54;10.00;99.90
56162;DHT22;42045;52.986;6.014;2023-04-24T10:20:26;10.10;99.90
56162;DHT22;42045;52.986;6.014;2023-04-24T10:22:53;10.20;99.90
56162;DHT22;42045;52.986;6.014;2023-04-24T10:25:21;10.30;99.90
56162;DHT22;42045;52.986;6.014;2023-04-24T10:27:49;10.40;99.90
56162;DHT22;42045;52.986;6.014;2023-04-24T10:30:16;10.40;99.90
56162;DHT22;42045;52.986;6.014;2023-04-24T10:32:41;10.30;99.90
56162;DHT22;42045;52.986;6.014;2023-04-24T10:35:08;10.30;99.90
56162;DHT22;42045;52.986;6.014;2023-04-24T10:38:24;10.30;99.90
56162;DHT22;42045;52.986;6.014;2023-04-24T10:40:27;10.30;99.90
56162;DHT22;42045;52.986;6.014;2023-04-24T10:42:56;10.30;99.90
56162;DHT22;42045;52.986;6.014;2023-04-24T10:45:23;10.20;99.90
56162;DHT22;42045;52.986;6.014;2023-04-24T10:47:56;10.30;99.90
56162;DHT22;42045;52.986;6.014;2023-04-24T10:50:22;10.40;99.90
56162;DHT22;42045;52.986;6.014;2023-04-24T10:52:49;10.40;99.90
56162;DHT22;42045;52.986;6.014;2023-04-24T10:55:47;10.40;99.90
56162;DHT22;42045;52.986;6.014;2023-04-24T10:58:13;10.40;99.90
56162;DHT22;42045;52.986;6.014;2023-04-24T11:00:40;10.50;99.90
56162;DHT22;42045;52.986;6.014;2023-04-24T11:03:12;10.70;99.90
56162;DHT22;42045;52.986;6.014;2023-04-24T11:08:29;10.80;99.90
56162;DHT22;42045;52.986;6.014;2023-04-24T11:10:57;10.70;99.90
56162;DHT22;42045;52.986;6.014;2023-04-24T11:13:25;10.60;99.90
56162;DHT22;42045;52.986;6.014;2023-04-24T11:19:05;10.40;99.90
56162;DHT22;42045;52.986;6.014;2023-04-24T11:21:47;10.40;99.90
56162;DHT22;42045;52.986;6.014;2023-04-24T11:27:21;10.50;99.90
56162;DHT22;42045;52.986;6.014;2023-04-24T11:32:27;10.60;99.90
56162;DHT22;42045;52.986;6.014;2023-04-24T11:34:59;10.70;99.90
56162;DHT22;42045;52.986;6.014;2023-04-24T11:37:36;10.90;99.90
56162;DHT22;42045;52.986;6.014;2023-04-24T11:40:07;11.10;99.90
56162;DHT22;42045;52.986;6.014;2023-04-24T11:42:38;11.30;99.90
56162;DHT22;42045;52.986;6.014;2023-04-24T11:45:18;11.50;99.90
56162;DHT22;42045;52.986;6.014;2023-04-24T11:47:45;11.80;99.90
56162;DHT22;42045;52.986;6.014;2023-04-24T11:50:12;12.10;99.90
56162;DHT22;42045;52.986;6.014;2023-04-24T11:52:40;12.20;99.90
56162;DHT22;42045;52.986;6.014;2023-04-24T11:57:54;12.40;99.90
56162;DHT22;42045;52.986;6.014;2023-04-24T12:03:02;12.10;99.90
56162;DHT22;42045;52.986;6.014;2023-04-24T12:05:29;12.10;99.90
56162;DHT22;42045;52.986;6.014;2023-04-24T12:07:57;12.10;99.90
56162;DHT22;42045;52.986;6.014;2023-04-24T12:10:24;12.00;99.90
56162;DHT22;42045;52.986;6.014;2023-04-24T12:12:51;12.00;99.90
56162;DHT22;42045;52.986;6.014;2023-04-24T12:15:19;12.00;99.90
56162;DHT22;42045;52.986;6.014;2023-04-24T12:17:45;11.90;99.90
56162;DHT22;42045;52.986;6.014;2023-04-24T12:20:11;11.80;99.90
56162;DHT22;42045;52.986;6.014;2023-04-24T12:22:53;11.70;99.90
56162;DHT22;42045;52.986;6.014;2023-04-24T12:25:27;11.70;99.90
56162;DHT22;42045;52.986;6.014;2023-04-24T12:30:21;11.50;99.90
56162;DHT22;42045;52.986;6.014;2023-04-24T12:32:51;11.40;99.90
56162;DHT22;42045;52.986;6.014;2023-04-24T12:35:22;11.50;99.90
56162;DHT22;42045;52.986;6.014;2023-04-24T12:37:48;11.50;99.90
56162;DHT22;42045;52.986;6.014;2023-04-24T12:40:14;11.60;99.90
56162;DHT22;42045;52.986;6.014;2023-04-24T12:42:45;11.70;99.90
56162;DHT22;42045;52.986;6.014;2023-04-24T12:45:11;11.80;99.90
56162;DHT22;42045;52.986;6.014;2023-04-24T12:47:38;11.60;99.90
56162;DHT22;42045;52.986;6.014;2023-04-24T12:50:05;11.60;99.90
56162;DHT22;42045;52.986;6.014;2023-04-24T12:52:31;11.70;99.90
56162;DHT22;42045;52.986;6.014;2023-04-24T12:55:00;11.60;99.90
56162;DHT22;42045;52.986;6.014;2023-04-24T12:57:28;11.40;99.90
56162;DHT22;42045;52.986;6.014;2023-04-24T12:59:55;11.20;99.90
56162;DHT22;42045;52.986;6.014;2023-04-24T13:02:22;11.10;99.90
56162;DHT22;42045;52.986;6.014;2023-04-24T13:04:49;11.10;99.90
56162;DHT22;42045;52.986;6.014;2023-04-24T13:07:15;11.10;99.90
56162;DHT22;42045;52.986;6.014;2023-04-24T13:09:42;11.10;99.90
56162;DHT22;42045;52.986;6.014;2023-04-24T13:12:08;11.30;99.90
56162;DHT22;42045;52.986;6.014;2023-04-24T13:14:34;11.20;99.90
56162;DHT22;42045;52.986;6.014;2023-04-24T13:17:00;11.40;99.90
56162;DHT22;42045;52.986;6.014;2023-04-24T13:19:27;11.50;99.90
56162;DHT22;42045;52.986;6.014;2023-04-24T13:21:55;11.70;99.90
56162;DHT22;42045;52.986;6.014;2023-04-24T13:24:21;11.90;99.90
56162;DHT22;42045;52.986;6.014;2023-04-24T13:26:51;12.00;99.90
56162;DHT22;42045;52.986;6.014;2023-04-24T13:29:17;11.90;99.90
56162;DHT22;42045;52.986;6.014;2023-04-24T13:31:42;11.70;99.90
56162;DHT22;42045;52.986;6.014;2023-04-24T13:34:08;11.50;99.90
56162;DHT22;42045;52.986;6.014;2023-04-24T13:36:34;11.40;99.90
56162;DHT22;42045;52.986;6.014;2023-04-24T13:39:00;11.30;99.90
56162;DHT22;42045;52.986;6.014;2023-04-24T13:41:26;11.30;99.90
56162;DHT22;42045;52.986;6.014;2023-04-24T13:43:52;11.20;99.90
56162;DHT22;42045;52.986;6.014;2023-04-24T13:46:18;11.10;99.90
56162;DHT22;42045;52.986;6.014;2023-04-24T13:48:43;11.10;99.90
56162;DHT22;42045;52.986;6.014;2023-04-24T13:51:09;11.10;99.90
56162;DHT22;42045;52.986;6.014;2023-04-24T13:53:35;11.00;99.90
56162;DHT22;42045;52.986;6.014;2023-04-24T13:56:04;10.80;99.90
56162;DHT22;42045;52.986;6.014;2023-04-24T13:58:30;10.70;99.90
56162;DHT22;42045;52.986;6.014;2023-04-24T14:00:55;10.60;99.90
56162;DHT22;42045;52.986;6.014;2023-04-24T14:03:21;10.60;99.90
56162;DHT22;42045;52.986;6.014;2023-04-24T14:05:47;10.50;99.90
56162;DHT22;42045;52.986;6.014;2023-04-24T14:08:13;10.50;99.90
56162;DHT22;42045;52.986;6.014;2023-04-24T14:10:38;10.50;99.90
56162;DHT22;42045;52.986;6.014;2023-04-24T14:13:04;10.40;99.90
56162;DHT22;42045;52.986;6.014;2023-04-24T14:15:31;10.30;99.90
56162;DHT22;42045;52.986;6.014;2023-04-24T14:17:56;10.30;99.90
56162;DHT22;42045;52.986;6.014;2023-04-24T14:20:23;10.30;99.90
56162;DHT22;42045;52.986;6.014;2023-04-24T14:22:48;10.30;99.90
56162;DHT22;42045;52.986;6.014;2023-04-24T14:25:14;10.30;99.90
56162;DHT22;42045;52.986;6.014;2023-04-24T14:27:40;10.40;99.90
56162;DHT22;42045;52.986;6.014;2023-04-24T14:30:07;10.40;99.90
56162;DHT22;42045;52.986;6.014;2023-04-24T14:32:33;10.40;99.90
56162;DHT22;42045;52.986;6.014;2023-04-24T14:34:58;10.50;99.90
56162;DHT22;42045;52.986;6.014;2023-04-24T14:37:24;10.60;99.90
56162;DHT22;42045;52.986;6.014;2023-04-24T14:39:50;10.60;99.90
56162;DHT22;42045;52.986;6.014;2023-04-24T14:42:15;10.50;99.90
56162;DHT22;42045;52.986;6.014;2023-04-24T14:44:42;10.50;99.90
56162;DHT22;42045;52.986;6.014;2023-04-24T14:47:08;10.30;99.90
56162;DHT22;42045;52.986;6.014;2023-04-24T14:49:34;10.20;99.90
56162;DHT22;42045;52.986;6.014;2023-04-24T14:51:59;10.20;99.90
56162;DHT22;42045;52.986;6.014;2023-04-24T14:54:25;10.10;99.90
56162;DHT22;42045;52.986;6.014;2023-04-24T14:56:51;10.10;99.90
56162;DHT22;42045;52.986;6.014;2023-04-24T14:59:16;10.20;99.90
56162;DHT22;42045;52.986;6.014;2023-04-24T15:01:42;10.30;99.90
56162;DHT22;42045;52.986;6.014;2023-04-24T15:04:08;10.30;99.90
56162;DHT22;42045;52.986;6.014;2023-04-24T15:06:33;10.30;99.90
56162;DHT22;42045;52.986;6.014;2023-04-24T15:09:00;10.30;99.90
56162;DHT22;42045;52.986;6.014;2023-04-24T15:11:26;10.30;99.90
56162;DHT22;42045;52.986;6.014;2023-04-24T15:13:51;10.20;99.90
56162;DHT22;42045;52.986;6.014;2023-04-24T15:16:17;10.10;99.90
56162;DHT22;42045;52.986;6.014;2023-04-24T15:18:43;10.00;99.90
56162;DHT22;42045;52.986;6.014;2023-04-24T15:21:08;9.80;99.90
56162;DHT22;42045;52.986;6.014;2023-04-24T15:23:34;9.80;99.90
56162;DHT22;42045;52.986;6.014;2023-04-24T15:26:00;9.80;99.90
56162;DHT22;42045;52.986;6.014;2023-04-24T15:28:26;9.80;99.90
56162;DHT22;42045;52.986;6.014;2023-04-24T15:30:52;9.80;99.90
56162;DHT22;42045;52.986;6.014;2023-04-24T15:33:17;9.80;99.90
56162;DHT22;42045;52.986;6.014;2023-04-24T15:35:43;9.80;99.90
56162;DHT22;42045;52.986;6.014;2023-04-24T15:38:09;9.80;99.90
56162;DHT22;42045;52.986;6.014;2023-04-24T15:40:34;9.80;99.90
56162;DHT22;42045;52.986;6.014;2023-04-24T15:43:00;9.90;99.90
56162;DHT22;42045;52.986;6.014;2023-04-24T15:45:26;9.80;99.90
56162;DHT22;42045;52.986;6.014;2023-04-24T15:47:52;9.80;99.90
56162;DHT22;42045;52.986;6.014;2023-04-24T15:50:17;9.80;99.90